createdAt,value
2023-03-05T00:00:09.453Z,984.36
2023-03-05T00:01:09.438Z,984.37
2023-03-05T00:02:09.485Z,984.32
2023-03-05T00:03:09.469Z,984.38
2023-03-05T00:04:09.418Z,984.32
2023-03-05T00:05:09.400Z,984.27
2023-03-05T00:06:09.391Z,984.24
2023-03-05T00:07:09.390Z,984.30
2023-03-05T00:08:09.369Z,984.29
2023-03-05T00:09:09.360Z,984.28
2023-03-05T00:10:09.347Z,984.25
2023-03-05T00:11:09.348Z,984.24
2023-03-05T00:12:09.342Z,984.24
2023-03-05T00:13:09.322Z,984.18
2023-03-05T00:14:09.317Z,984.26
2023-03-05T00:15:09.301Z,984.26
2023-03-05T00:16:09.349Z,984.22
2023-03-05T00:17:09.300Z,984.25
2023-03-05T00:18:09.275Z,984.23
2023-03-05T00:19:09.299Z,984.27
2023-03-05T00:20:09.267Z,984.27
2023-03-05T00:21:09.252Z,984.25
2023-03-05T00:22:09.252Z,984.28
2023-03-05T00:23:09.262Z,984.29
2023-03-05T00:24:09.234Z,984.27
2023-03-05T00:25:09.242Z,984.25
2023-03-05T00:26:09.203Z,984.21
2023-03-05T00:27:09.206Z,984.24
2023-03-05T00:28:09.189Z,984.21
2023-03-05T00:29:09.190Z,984.19
2023-03-05T00:30:09.170Z,984.16
2023-03-05T00:31:09.199Z,984.24
2023-03-05T00:32:09.207Z,984.15
2023-03-05T00:33:09.167Z,984.19
2023-03-05T00:34:09.136Z,984.10
2023-03-05T00:35:09.131Z,984.09
2023-03-05T00:36:09.173Z,984.17
2023-03-05T00:37:09.137Z,984.07
2023-03-05T00:38:09.103Z,984.05
2023-03-05T00:39:09.098Z,984.09
2023-03-05T00:40:09.150Z,984.13
2023-03-05T00:41:09.083Z,984.09
2023-03-05T00:42:09.094Z,984.06
2023-03-05T00:43:09.080Z,984.07
2023-03-05T00:44:09.056Z,984.05
2023-03-05T00:45:09.060Z,984.05
2023-03-05T00:46:09.105Z,984.03
2023-03-05T00:47:09.054Z,984.08
2023-03-05T00:48:09.015Z,984.08
2023-03-05T00:49:09.016Z,984.08
2023-03-05T00:50:09.008Z,983.99
2023-03-05T00:51:08.998Z,984.00
2023-03-05T00:52:08.997Z,983.94
2023-03-05T00:53:08.980Z,984.00
2023-03-05T00:54:08.979Z,983.97
2023-03-05T00:55:08.965Z,983.96
2023-03-05T00:56:08.960Z,983.95
2023-03-05T00:57:08.958Z,983.89
2023-03-05T00:58:08.936Z,983.99
2023-03-05T00:59:08.930Z,983.98
2023-03-05T01:00:08.927Z,983.87
2023-03-05T01:01:08.911Z,983.89
2023-03-05T01:02:08.905Z,983.83
2023-03-05T01:03:08.903Z,983.80
2023-03-05T01:04:08.876Z,983.75
2023-03-05T01:05:08.897Z,983.87
2023-03-05T01:06:08.883Z,983.81
2023-03-05T01:07:08.855Z,983.79
2023-03-05T01:08:08.856Z,983.78
2023-03-05T01:09:08.833Z,983.70
2023-03-05T01:10:08.823Z,983.70
2023-03-05T01:11:08.812Z,983.83
2023-03-05T01:12:08.800Z,983.71
2023-03-05T01:13:08.803Z,983.74
2023-03-05T01:14:08.782Z,983.81
2023-03-05T01:15:08.774Z,983.76
2023-03-05T01:16:08.824Z,983.82
2023-03-05T01:17:08.753Z,983.79
2023-03-05T01:18:08.757Z,983.73
2023-03-05T01:19:08.742Z,983.72
2023-03-05T01:20:08.727Z,983.69
2023-03-05T01:21:08.720Z,983.70
2023-03-05T01:22:08.710Z,983.69
2023-03-05T01:23:08.714Z,983.63
2023-03-05T01:24:08.699Z,983.64
2023-03-05T01:25:08.684Z,983.64
2023-03-05T01:26:08.738Z,983.62
2023-03-05T01:27:08.666Z,983.60
2023-03-05T01:28:08.673Z,983.60
2023-03-05T01:29:08.651Z,983.65
2023-03-05T01:30:08.641Z,983.64
2023-03-05T01:31:08.645Z,983.51
2023-03-05T01:32:08.687Z,983.48
2023-03-05T01:33:08.646Z,983.50
2023-03-05T01:34:08.612Z,983.52
2023-03-05T01:35:08.604Z,983.44
2023-03-05T01:36:08.589Z,983.43
2023-03-05T01:37:08.582Z,983.43
2023-03-05T01:38:08.591Z,983.39
2023-03-05T01:39:08.609Z,983.42
2023-03-05T01:40:08.604Z,983.38
2023-03-05T01:41:08.553Z,983.35
2023-03-05T01:42:08.542Z,983.37
2023-03-05T01:43:08.549Z,983.39
2023-03-05T01:44:08.533Z,983.29
2023-03-05T01:45:08.522Z,983.37
2023-03-05T01:46:08.537Z,983.34
2023-03-05T01:47:08.522Z,983.29
2023-03-05T01:48:08.503Z,983.32
2023-03-05T01:49:08.485Z,983.31
2023-03-05T01:50:08.477Z,983.27
2023-03-05T01:51:08.468Z,983.26
2023-03-05T01:52:08.468Z,983.20
2023-03-05T01:53:08.464Z,983.23
2023-03-05T01:54:08.443Z,983.27
2023-03-05T01:55:08.437Z,983.21
2023-03-05T01:56:08.424Z,983.23
2023-03-05T01:57:08.431Z,983.23
2023-03-05T01:58:08.425Z,983.23
2023-03-05T01:59:08.401Z,983.20
2023-03-05T02:00:08.392Z,983.17
2023-03-05T02:01:08.621Z,983.19
2023-03-05T02:02:08.372Z,983.18
2023-03-05T02:03:08.385Z,983.11
2023-03-05T02:04:08.465Z,983.14
2023-03-05T02:05:08.352Z,983.09
2023-03-05T02:06:08.341Z,983.13
2023-03-05T02:07:08.322Z,983.13
2023-03-05T02:08:09.336Z,983.09
2023-03-05T02:09:08.311Z,983.15
2023-03-05T02:10:08.350Z,983.12
2023-03-05T02:11:08.308Z,983.12
2023-03-05T02:12:08.305Z,983.08
2023-03-05T02:13:08.289Z,983.07
2023-03-05T02:14:09.981Z,983.08
2023-03-05T02:15:09.265Z,983.08
2023-03-05T02:16:08.318Z,983.07
2023-03-05T02:17:08.245Z,983.06
2023-03-05T02:18:08.254Z,983.01
2023-03-05T02:19:08.240Z,983.02
2023-03-05T02:20:08.229Z,982.95
2023-03-05T02:21:08.224Z,982.99
2023-03-05T02:22:08.209Z,983.00
2023-03-05T02:23:08.209Z,983.01
2023-03-05T02:24:08.191Z,982.95
2023-03-05T02:25:08.189Z,982.96
2023-03-05T02:26:08.174Z,982.98
2023-03-05T02:27:08.168Z,982.90
2023-03-05T02:28:08.198Z,982.95
2023-03-05T02:29:08.158Z,982.84
2023-03-05T02:30:08.151Z,982.90
2023-03-05T02:31:08.138Z,982.88
2023-03-05T02:32:08.368Z,982.81
2023-03-05T02:33:08.122Z,982.87
2023-03-05T02:34:08.103Z,982.83
2023-03-05T02:35:08.099Z,982.83
2023-03-05T02:36:08.087Z,982.82
2023-03-05T02:37:08.076Z,982.82
2023-03-05T02:38:08.100Z,982.78
2023-03-05T02:39:08.065Z,982.73
2023-03-05T02:40:08.052Z,982.78
2023-03-05T02:41:08.045Z,982.78
2023-03-05T02:42:08.036Z,982.74
2023-03-05T02:43:08.043Z,982.75
2023-03-05T02:44:08.021Z,982.72
2023-03-05T02:45:08.014Z,982.77
2023-03-05T02:46:08.051Z,982.77
2023-03-05T02:47:07.994Z,982.69
2023-03-05T02:48:08.016Z,982.72
2023-03-05T02:49:07.984Z,982.75
2023-03-05T02:50:07.971Z,982.70
2023-03-05T02:51:07.970Z,982.73
2023-03-05T02:52:07.951Z,982.71
2023-03-05T02:53:07.963Z,982.69
2023-03-05T02:54:07.941Z,982.70
2023-03-05T02:55:07.927Z,982.69
2023-03-05T02:56:07.937Z,982.68
2023-03-05T02:57:07.910Z,982.65
2023-03-05T02:58:07.908Z,982.61
2023-03-05T02:59:07.898Z,982.61
2023-03-05T03:00:07.944Z,982.61
2023-03-05T03:01:07.932Z,982.62
2023-03-05T03:02:07.860Z,982.62
2023-03-05T03:03:07.874Z,982.55
2023-03-05T03:04:07.923Z,982.59
2023-03-05T03:05:07.833Z,982.60
2023-03-05T03:06:07.824Z,982.58
2023-03-05T03:07:07.816Z,982.59
2023-03-05T03:08:07.817Z,982.53
2023-03-05T03:09:07.802Z,982.54
2023-03-05T03:10:07.792Z,982.50
2023-03-05T03:11:07.781Z,982.50
2023-03-05T03:12:07.774Z,982.51
2023-03-05T03:13:07.787Z,982.46
2023-03-05T03:14:07.765Z,982.46
2023-03-05T03:15:07.744Z,982.46
2023-03-05T03:16:07.733Z,982.43
2023-03-05T03:17:07.833Z,982.39
2023-03-05T03:18:07.733Z,982.38
2023-03-05T03:19:07.720Z,982.35
2023-03-05T03:20:07.712Z,982.33
2023-03-05T03:21:07.715Z,982.26
2023-03-05T03:22:07.689Z,982.32
2023-03-05T03:23:07.699Z,982.26
2023-03-05T03:24:07.693Z,982.23
2023-03-05T03:25:07.677Z,982.22
2023-03-05T03:26:07.656Z,982.24
2023-03-05T03:27:07.649Z,982.20
2023-03-05T03:28:07.651Z,982.18
2023-03-05T03:29:07.630Z,982.17
2023-03-05T03:30:07.640Z,982.21
2023-03-05T03:31:07.650Z,982.20
2023-03-05T03:32:07.666Z,982.12
2023-03-05T03:33:07.611Z,982.11
2023-03-05T03:34:07.594Z,982.05
2023-03-05T03:35:07.591Z,982.16
2023-03-05T03:36:07.574Z,982.13
2023-03-05T03:37:07.569Z,982.12
2023-03-05T03:38:07.569Z,982.16
2023-03-05T03:39:07.553Z,982.08
2023-03-05T03:40:07.544Z,982.13
2023-03-05T03:41:07.537Z,982.11
2023-03-05T03:42:07.522Z,982.12
2023-03-05T03:43:07.532Z,982.07
2023-03-05T03:44:07.509Z,982.00
2023-03-05T03:45:07.498Z,982.01
2023-03-05T03:46:07.608Z,982.01
2023-03-05T03:47:07.503Z,982.01
2023-03-05T03:48:07.486Z,982.03
2023-03-05T03:49:07.464Z,981.97
2023-03-05T03:50:07.484Z,982.00
2023-03-05T03:51:07.445Z,981.97
2023-03-05T03:52:07.444Z,981.93
2023-03-05T03:53:07.446Z,981.96
2023-03-05T03:54:07.428Z,981.93
2023-03-05T03:55:07.417Z,981.95
2023-03-05T03:56:07.406Z,981.91
2023-03-05T03:57:07.399Z,981.95
2023-03-05T03:58:07.404Z,982.03
2023-03-05T03:59:07.383Z,981.90
2023-03-05T04:00:07.377Z,981.99
2023-03-05T04:01:07.364Z,981.96
2023-03-05T04:02:07.377Z,981.96
2023-03-05T04:03:07.361Z,981.98
2023-03-05T04:04:07.377Z,981.94
2023-03-05T04:05:07.372Z,981.98
2023-03-05T04:06:07.328Z,981.91
2023-03-05T04:07:07.318Z,981.99
2023-03-05T04:08:07.328Z,981.99
2023-03-05T04:09:07.300Z,981.89
2023-03-05T04:10:07.297Z,981.92
2023-03-05T04:11:07.285Z,981.97
2023-03-05T04:12:07.290Z,981.93
2023-03-05T04:13:07.280Z,981.94
2023-03-05T04:14:07.251Z,981.91
2023-03-05T04:15:07.246Z,982.01
2023-03-05T04:16:07.265Z,982.00
2023-03-05T04:17:07.229Z,981.91
2023-03-05T04:18:07.232Z,981.84
2023-03-05T04:19:07.211Z,981.86
2023-03-05T04:20:07.204Z,981.87
2023-03-05T04:21:07.200Z,981.86
2023-03-05T04:22:07.199Z,981.85
2023-03-05T04:23:07.189Z,981.84
2023-03-05T04:24:07.167Z,981.84
2023-03-05T04:25:07.171Z,981.86
2023-03-05T04:26:07.146Z,981.86
2023-03-05T04:27:08.167Z,981.81
2023-03-05T04:28:07.151Z,981.81
2023-03-05T04:29:07.135Z,981.83
2023-03-05T04:30:39.028Z,981.82
2023-03-05T04:31:07.110Z,981.82
2023-03-05T04:32:07.136Z,981.78
2023-03-05T04:33:07.101Z,981.71
2023-03-05T04:34:07.074Z,981.77
2023-03-05T04:35:07.068Z,981.73
2023-03-05T04:36:07.059Z,981.76
2023-03-05T04:37:08.054Z,981.75
2023-03-05T04:38:07.061Z,981.75
2023-03-05T04:39:07.038Z,981.71
2023-03-05T04:40:07.048Z,981.70
2023-03-05T04:41:07.021Z,981.66
2023-03-05T04:42:07.011Z,981.65
2023-03-05T04:43:07.018Z,981.67
2023-03-05T04:44:07.000Z,981.73
2023-03-05T04:45:06.988Z,981.66
2023-03-05T04:46:07.014Z,981.64
2023-03-05T04:47:06.968Z,981.61
2023-03-05T04:48:06.995Z,981.65
2023-03-05T04:49:06.957Z,981.67
2023-03-05T04:50:06.947Z,981.61
2023-03-05T04:51:06.943Z,981.64
2023-03-05T04:52:06.931Z,981.63
2023-03-05T04:53:06.950Z,981.62
2023-03-05T04:54:06.914Z,981.60
2023-03-05T04:55:06.903Z,981.58
2023-03-05T04:56:06.916Z,981.58
2023-03-05T04:57:06.887Z,981.59
2023-03-05T04:58:07.131Z,981.62
2023-03-05T04:59:06.868Z,981.54
2023-03-05T05:00:06.862Z,981.56
2023-03-05T05:01:06.851Z,981.53
2023-03-05T05:02:06.920Z,981.55
2023-03-05T05:03:06.919Z,981.51
2023-03-05T05:04:06.823Z,981.48
2023-03-05T05:05:06.821Z,981.50
2023-03-05T05:06:06.806Z,981.43
2023-03-05T05:07:06.793Z,981.47
2023-03-05T05:08:06.804Z,981.38
2023-03-05T05:09:06.778Z,981.44
2023-03-05T05:10:06.783Z,981.40
2023-03-05T05:11:06.782Z,981.39
2023-03-05T05:12:06.755Z,981.40
2023-03-05T05:13:06.746Z,981.38
2023-03-05T05:14:06.749Z,981.42
2023-03-05T05:15:06.725Z,981.42
2023-03-05T05:16:06.778Z,981.33
2023-03-05T05:17:06.721Z,981.35
2023-03-05T05:18:06.703Z,981.37
2023-03-05T05:19:06.763Z,981.37
2023-03-05T05:20:06.682Z,981.38
2023-03-05T05:21:06.681Z,981.36
2023-03-05T05:22:06.671Z,981.32
2023-03-05T05:23:06.672Z,981.34
2023-03-05T05:24:06.670Z,981.33
2023-03-05T05:25:06.640Z,981.31
2023-03-05T05:26:06.630Z,981.34
2023-03-05T05:27:06.626Z,981.35
2023-03-05T05:28:06.615Z,981.37
2023-03-05T05:29:06.621Z,981.32
2023-03-05T05:30:06.602Z,981.31
2023-03-05T05:31:06.649Z,981.28
2023-03-05T05:32:06.591Z,981.32
2023-03-05T05:33:07.574Z,981.28
2023-03-05T05:34:06.589Z,981.27
2023-03-05T05:35:06.561Z,981.19
2023-03-05T05:36:06.549Z,981.24
2023-03-05T05:37:06.545Z,981.23
2023-03-05T05:38:06.540Z,981.22
2023-03-05T05:39:06.549Z,981.19
2023-03-05T05:40:06.533Z,981.21
2023-03-05T05:41:06.514Z,981.24
2023-03-05T05:42:06.517Z,981.25
2023-03-05T05:43:06.497Z,981.20
2023-03-05T05:44:06.495Z,981.26
2023-03-05T05:45:06.545Z,981.21
2023-03-05T05:46:06.592Z,981.16
2023-03-05T05:47:06.465Z,981.17
2023-03-05T05:48:06.464Z,981.21
2023-03-05T05:49:06.458Z,981.22
2023-03-05T05:50:06.453Z,981.20
2023-03-05T05:51:06.441Z,981.15
2023-03-05T05:52:06.423Z,981.26
2023-03-05T05:53:06.413Z,981.23
2023-03-05T05:54:06.424Z,981.16
2023-03-05T05:55:06.397Z,981.19
2023-03-05T05:56:06.390Z,981.25
2023-03-05T05:57:06.396Z,981.24
2023-03-05T05:58:06.375Z,981.14
2023-03-05T05:59:06.372Z,981.18
2023-03-05T06:00:06.359Z,981.17
2023-03-05T06:01:06.348Z,981.13
2023-03-05T06:02:06.362Z,981.19
2023-03-05T06:03:06.365Z,981.13
2023-03-05T06:04:06.331Z,981.21
2023-03-05T06:05:06.314Z,981.10
2023-03-05T06:06:06.314Z,981.23
2023-03-05T06:07:06.300Z,981.26
2023-03-05T06:08:06.290Z,981.23
2023-03-05T06:09:06.292Z,981.27
2023-03-05T06:10:06.269Z,981.29
2023-03-05T06:11:06.259Z,981.30
2023-03-05T06:12:06.251Z,981.26
2023-03-05T06:13:06.247Z,981.37
2023-03-05T06:14:06.245Z,981.33
2023-03-05T06:15:06.230Z,981.37
2023-03-05T06:16:06.264Z,981.34
2023-03-05T06:17:06.210Z,981.36
2023-03-05T06:18:06.206Z,981.36
2023-03-05T06:19:06.200Z,981.35
2023-03-05T06:20:06.191Z,981.30
2023-03-05T06:21:06.169Z,981.37
2023-03-05T06:22:06.191Z,981.32
2023-03-05T06:23:06.158Z,981.31
2023-03-05T06:24:06.153Z,981.34
2023-03-05T06:25:06.141Z,981.30
2023-03-05T06:26:06.165Z,981.37
2023-03-05T06:27:06.116Z,981.29
2023-03-05T06:28:06.122Z,981.33
2023-03-05T06:29:06.123Z,981.28
2023-03-05T06:30:06.093Z,981.26
2023-03-05T06:31:06.122Z,981.31
2023-03-05T06:32:06.602Z,981.32
2023-03-05T06:33:06.074Z,981.29
2023-03-05T06:34:06.071Z,981.25
2023-03-05T06:35:06.049Z,981.23
2023-03-05T06:36:07.042Z,981.22
2023-03-05T06:37:06.042Z,981.26
2023-03-05T06:38:06.020Z,981.28
2023-03-05T06:39:07.073Z,981.29
2023-03-05T06:40:06.008Z,981.27
2023-03-05T06:41:06.007Z,981.27
2023-03-05T06:42:05.992Z,981.27
2023-03-05T06:43:05.991Z,981.25
2023-03-05T06:44:05.978Z,981.21
2023-03-05T06:45:05.960Z,981.24
2023-03-05T06:46:06.004Z,981.21
2023-03-05T06:47:05.943Z,981.27
2023-03-05T06:48:05.935Z,981.16
2023-03-05T06:49:05.938Z,981.27
2023-03-05T06:50:05.917Z,981.20
2023-03-05T06:51:05.901Z,981.13
2023-03-05T06:52:06.902Z,981.19
2023-03-05T06:53:05.907Z,981.15
2023-03-05T06:54:05.896Z,981.17
2023-03-05T06:55:05.875Z,981.24
2023-03-05T06:56:05.870Z,981.19
2023-03-05T06:57:05.862Z,981.10
2023-03-05T06:58:05.868Z,981.22
2023-03-05T06:59:05.859Z,981.20
2023-03-05T07:00:05.840Z,981.21
2023-03-05T07:01:05.847Z,981.22
2023-03-05T07:02:05.846Z,981.19
2023-03-05T07:03:05.812Z,981.22
2023-03-05T07:04:05.807Z,981.22
2023-03-05T07:05:05.799Z,981.19
2023-03-05T07:06:05.781Z,981.24
2023-03-05T07:07:05.779Z,981.18
2023-03-05T07:08:05.771Z,981.20
2023-03-05T07:09:05.766Z,981.18
2023-03-05T07:10:05.782Z,981.16
2023-03-05T07:11:05.738Z,981.17
2023-03-05T07:12:05.740Z,981.20
2023-03-05T07:13:05.720Z,981.20
2023-03-05T07:14:05.719Z,981.13
2023-03-05T07:15:05.711Z,981.05
2023-03-05T07:16:05.785Z,981.13
2023-03-05T07:17:05.696Z,981.07
2023-03-05T07:18:05.679Z,981.09
2023-03-05T07:19:05.679Z,981.06
2023-03-05T07:20:05.658Z,981.09
2023-03-05T07:21:05.659Z,981.12
2023-03-05T07:22:05.643Z,981.06
2023-03-05T07:23:05.630Z,981.07
2023-03-05T07:24:05.631Z,981.08
2023-03-05T07:25:05.697Z,981.09
2023-03-05T07:26:05.641Z,980.97
2023-03-05T07:27:05.600Z,981.05
2023-03-05T07:28:05.583Z,981.07
2023-03-05T07:29:05.591Z,981.03
2023-03-05T07:30:05.575Z,980.98
2023-03-05T07:31:05.595Z,980.95
2023-03-05T07:32:05.588Z,980.96
2023-03-05T07:33:05.549Z,980.96
2023-03-05T07:34:05.548Z,980.97
2023-03-05T07:35:05.532Z,980.99
2023-03-05T07:36:05.524Z,980.91
2023-03-05T07:37:05.522Z,980.94
2023-03-05T07:38:05.583Z,980.97
2023-03-05T07:39:05.510Z,980.93
2023-03-05T07:40:05.485Z,980.93
2023-03-05T07:41:05.481Z,980.88
2023-03-05T07:42:05.511Z,980.93
2023-03-05T07:43:05.462Z,981.00
2023-03-05T07:44:05.462Z,980.90
2023-03-05T07:45:05.441Z,980.87
2023-03-05T07:46:05.499Z,980.94
2023-03-05T07:47:05.434Z,980.93
2023-03-05T07:48:05.412Z,980.88
2023-03-05T07:49:05.423Z,980.84
2023-03-05T07:50:05.398Z,980.84
2023-03-05T07:51:05.401Z,980.87
2023-03-05T07:52:05.466Z,980.84
2023-03-05T07:53:05.378Z,980.86
2023-03-05T07:54:05.849Z,980.86
2023-03-05T07:55:05.359Z,980.86
2023-03-05T07:56:05.346Z,980.80
2023-03-05T07:57:05.327Z,980.79
2023-03-05T07:58:06.333Z,980.79
2023-03-05T07:59:05.334Z,980.75
2023-03-05T08:00:05.330Z,980.79
2023-03-05T08:01:05.309Z,980.77
2023-03-05T08:02:05.380Z,980.77
2023-03-05T08:03:05.291Z,980.75
2023-03-05T08:04:05.291Z,980.71
2023-03-05T08:05:05.285Z,980.76
2023-03-05T08:06:05.266Z,980.75
2023-03-05T08:07:05.264Z,980.71
2023-03-05T08:08:05.249Z,980.69
2023-03-05T08:09:05.245Z,980.80
2023-03-05T08:10:05.264Z,980.79
2023-03-05T08:11:05.222Z,980.72
2023-03-05T08:12:05.214Z,980.71
2023-03-05T08:13:05.204Z,980.72
2023-03-05T08:14:05.210Z,980.67
2023-03-05T08:15:05.198Z,980.71
2023-03-05T08:16:05.235Z,980.75
2023-03-05T08:17:05.171Z,980.67
2023-03-05T08:18:05.162Z,980.72
2023-03-05T08:19:05.146Z,980.72
2023-03-05T08:20:05.156Z,980.78
2023-03-05T08:21:05.146Z,980.76
2023-03-05T08:22:05.160Z,980.73
2023-03-05T08:23:05.129Z,980.78
2023-03-05T08:24:05.112Z,980.76
2023-03-05T08:25:05.119Z,980.71
2023-03-05T08:26:05.097Z,980.70
2023-03-05T08:27:05.093Z,980.76
2023-03-05T08:28:05.076Z,980.67
2023-03-05T08:29:05.068Z,980.67
2023-03-05T08:30:05.074Z,980.70
2023-03-05T08:31:05.077Z,980.69
2023-03-05T08:32:05.078Z,980.73
2023-03-05T08:33:05.034Z,980.75
2023-03-05T08:34:05.027Z,980.73
2023-03-05T08:35:05.065Z,980.66
2023-03-05T08:36:05.013Z,980.73
2023-03-05T08:37:05.003Z,980.73
2023-03-05T08:38:04.986Z,980.68
2023-03-05T08:39:04.983Z,980.70
2023-03-05T08:40:05.104Z,980.73
2023-03-05T08:41:04.964Z,980.72
2023-03-05T08:42:06.889Z,980.76
2023-03-05T08:43:04.949Z,980.75
2023-03-05T08:44:04.943Z,980.75
2023-03-05T08:45:04.944Z,980.76
2023-03-05T08:46:04.922Z,980.77
2023-03-05T08:47:04.918Z,980.73
2023-03-05T08:48:04.912Z,980.66
2023-03-05T08:49:04.903Z,980.62
2023-03-05T08:50:04.915Z,980.56
2023-03-05T08:51:04.884Z,980.60
2023-03-05T08:52:04.872Z,980.55
2023-03-05T08:53:04.859Z,980.57
2023-03-05T08:54:04.866Z,980.54
2023-03-05T08:55:04.858Z,980.53
2023-03-05T08:56:04.841Z,980.54
2023-03-05T08:57:04.836Z,980.47
2023-03-05T08:58:04.827Z,980.52
2023-03-05T08:59:04.811Z,980.46
2023-03-05T09:00:04.812Z,980.47
2023-03-05T09:01:04.796Z,980.40
2023-03-05T09:02:04.809Z,980.40
2023-03-05T09:03:04.839Z,980.41
2023-03-05T09:04:04.764Z,980.38
2023-03-05T09:05:04.769Z,980.45
2023-03-05T09:06:04.761Z,980.38
2023-03-05T09:07:04.739Z,980.38
2023-03-05T09:08:04.731Z,980.38
2023-03-05T09:09:04.722Z,980.29
2023-03-05T09:10:04.728Z,980.43
2023-03-05T09:11:04.708Z,980.33
2023-03-05T09:12:04.698Z,980.28
2023-03-05T09:13:04.688Z,980.30
2023-03-05T09:14:04.682Z,980.30
2023-03-05T09:15:04.701Z,980.33
2023-03-05T09:16:04.738Z,980.29
2023-03-05T09:17:04.770Z,980.29
2023-03-05T09:18:04.647Z,980.32
2023-03-05T09:19:04.640Z,980.30
2023-03-05T09:20:05.516Z,980.22
2023-03-05T09:21:04.631Z,980.29
2023-03-05T09:22:04.615Z,980.26
2023-03-05T09:23:06.277Z,980.29
2023-03-05T09:24:04.588Z,980.32
2023-03-05T09:25:04.593Z,980.28
2023-03-05T09:26:04.570Z,980.25
2023-03-05T09:27:06.385Z,980.29
2023-03-05T09:28:05.207Z,980.26
2023-03-05T09:29:04.548Z,980.26
2023-03-05T09:30:04.551Z,980.22
2023-03-05T09:31:04.602Z,980.21
2023-03-05T09:32:04.635Z,980.23
2023-03-05T09:33:04.511Z,980.22
2023-03-05T09:34:04.502Z,980.21
2023-03-05T09:35:04.541Z,980.20
2023-03-05T09:36:04.485Z,980.21
2023-03-05T09:37:04.506Z,980.24
2023-03-05T09:38:04.690Z,980.24
2023-03-05T09:39:04.464Z,980.25
2023-03-05T09:40:04.627Z,980.24
2023-03-05T09:41:04.440Z,980.25
2023-03-05T09:42:04.436Z,980.22
2023-03-05T09:43:07.430Z,980.24
2023-03-05T09:44:04.420Z,980.20
2023-03-05T09:45:04.423Z,980.32
2023-03-05T09:46:04.411Z,980.32
2023-03-05T09:47:04.450Z,980.30
2023-03-05T09:48:04.388Z,980.26
2023-03-05T09:49:04.492Z,980.21
2023-03-05T09:50:04.392Z,980.28
2023-03-05T09:51:04.357Z,980.23
2023-03-05T09:52:04.496Z,980.21
2023-03-05T09:53:04.341Z,980.23
2023-03-05T09:54:04.342Z,980.19
2023-03-05T09:55:04.333Z,980.20
2023-03-05T09:56:04.378Z,980.14
2023-03-05T09:57:04.315Z,980.11
2023-03-05T09:58:04.302Z,980.14
2023-03-05T09:59:04.293Z,980.23
2023-03-05T10:00:04.323Z,980.14
2023-03-05T10:01:04.272Z,980.13
2023-03-05T10:02:04.263Z,980.16
2023-03-05T10:03:04.387Z,980.14
2023-03-05T10:04:04.353Z,980.17
2023-03-05T10:05:04.250Z,980.10
2023-03-05T10:06:04.238Z,980.08
2023-03-05T10:07:04.222Z,980.10
2023-03-05T10:08:04.227Z,980.08
2023-03-05T10:09:04.208Z,980.07
2023-03-05T10:10:04.215Z,980.00
2023-03-05T10:11:04.188Z,980.04
2023-03-05T10:12:04.179Z,980.08
2023-03-05T10:13:04.182Z,980.03
2023-03-05T10:14:04.283Z,980.11
2023-03-05T10:15:04.189Z,980.02
2023-03-05T10:16:04.149Z,980.00
2023-03-05T10:17:04.130Z,980.07
2023-03-05T10:18:04.273Z,980.06
2023-03-05T10:19:04.184Z,980.04
2023-03-05T10:20:04.119Z,980.03
2023-03-05T10:21:04.102Z,980.01
2023-03-05T10:22:04.266Z,980.02
2023-03-05T10:23:04.096Z,980.05
2023-03-05T10:24:04.088Z,980.04
2023-03-05T10:25:04.261Z,979.95
2023-03-05T10:26:04.121Z,980.02
2023-03-05T10:27:04.121Z,979.97
2023-03-05T10:28:04.036Z,979.91
2023-03-05T10:29:04.035Z,979.94
2023-03-05T10:30:04.042Z,979.93
2023-03-05T10:31:04.019Z,979.86
2023-03-05T10:32:04.207Z,979.87
2023-03-05T10:33:04.007Z,979.86
2023-03-05T10:34:03.989Z,979.88
2023-03-05T10:35:03.977Z,979.82
2023-03-05T10:36:04.002Z,979.85
2023-03-05T10:37:04.089Z,979.73
2023-03-05T10:38:03.955Z,979.71
2023-03-05T10:39:03.941Z,979.74
2023-03-05T10:40:35.851Z,979.76
2023-03-05T10:41:03.921Z,979.74
2023-03-05T10:42:03.909Z,979.77
2023-03-05T10:43:03.909Z,979.72
2023-03-05T10:44:03.947Z,979.69
2023-03-05T10:45:03.879Z,979.67
2023-03-05T10:46:04.925Z,979.69
2023-03-05T10:47:04.873Z,979.71
2023-03-05T10:48:03.866Z,979.64
2023-03-05T10:49:03.857Z,979.70
2023-03-05T10:50:03.839Z,979.71
2023-03-05T10:51:03.842Z,979.66
2023-03-05T10:52:03.822Z,979.74
2023-03-05T10:53:03.841Z,979.74
2023-03-05T10:54:03.807Z,979.71
2023-03-05T10:55:03.821Z,979.72
2023-03-05T10:56:03.813Z,979.69
2023-03-05T10:57:03.774Z,979.71
2023-03-05T10:58:03.776Z,979.71
2023-03-05T10:59:03.758Z,979.65
2023-03-05T11:00:03.753Z,979.64
2023-03-05T11:01:03.782Z,979.61
2023-03-05T11:02:03.744Z,979.63
2023-03-05T11:03:03.745Z,979.60
2023-03-05T11:04:03.754Z,979.61
2023-03-05T11:05:05.258Z,979.64
2023-03-05T11:06:04.706Z,979.56
2023-03-05T11:07:03.678Z,979.57
2023-03-05T11:08:03.679Z,979.59
2023-03-05T11:09:03.667Z,979.57
2023-03-05T11:10:03.680Z,979.57
2023-03-05T11:11:04.154Z,979.48
2023-03-05T11:12:04.637Z,979.53
2023-03-05T11:13:03.632Z,979.53
2023-03-05T11:14:03.629Z,979.48
2023-03-05T11:15:03.614Z,979.49
2023-03-05T11:16:03.669Z,979.45
2023-03-05T11:17:03.620Z,979.46
2023-03-05T11:18:03.579Z,979.45
2023-03-05T11:19:03.571Z,979.42
2023-03-05T11:20:03.561Z,979.39
2023-03-05T11:21:03.582Z,979.43
2023-03-05T11:22:05.177Z,979.38
2023-03-05T11:23:03.535Z,979.44
2023-03-05T11:24:03.536Z,979.39
2023-03-05T11:25:03.516Z,979.39
2023-03-05T11:26:03.520Z,979.35
2023-03-05T11:27:03.500Z,979.37
2023-03-05T11:28:03.504Z,979.35
2023-03-05T11:29:03.487Z,979.30
2023-03-05T11:30:03.469Z,979.28
2023-03-05T11:31:03.522Z,979.32
2023-03-05T11:32:03.511Z,979.29
2023-03-05T11:33:03.458Z,979.31
2023-03-05T11:34:03.457Z,979.29
2023-03-05T11:35:03.452Z,979.29
2023-03-05T11:36:03.432Z,979.29
2023-03-05T11:37:03.426Z,979.31
2023-03-05T11:38:03.412Z,979.28
2023-03-05T11:39:03.408Z,979.25
2023-03-05T11:40:03.387Z,979.25
2023-03-05T11:41:03.390Z,979.24
2023-03-05T11:42:03.379Z,979.19
2023-03-05T11:43:03.451Z,979.21
2023-03-05T11:44:03.354Z,979.10
2023-03-05T11:45:03.349Z,979.18
2023-03-05T11:46:03.430Z,979.12
2023-03-05T11:47:03.325Z,979.14
2023-03-05T11:48:03.317Z,979.12
2023-03-05T11:49:03.351Z,979.08
2023-03-05T11:50:03.306Z,979.11
2023-03-05T11:51:03.301Z,979.08
2023-03-05T11:52:03.284Z,979.13
2023-03-05T11:53:03.349Z,979.05
2023-03-05T11:54:03.262Z,978.99
2023-03-05T11:55:03.265Z,979.01
2023-03-05T11:56:03.335Z,979.00
2023-03-05T11:57:03.239Z,979.04
2023-03-05T11:58:03.230Z,979.00
2023-03-05T11:59:03.226Z,978.99
2023-03-05T12:00:03.215Z,978.97
2023-03-05T12:01:03.210Z,978.99
2023-03-05T12:02:03.194Z,978.94
2023-03-05T12:03:03.240Z,978.92
2023-03-05T12:04:03.239Z,978.91
2023-03-05T12:05:03.219Z,978.84
2023-03-05T12:06:03.312Z,978.86
2023-03-05T12:07:03.158Z,978.91
2023-03-05T12:08:03.151Z,978.84
2023-03-05T12:09:03.132Z,978.77
2023-03-05T12:10:03.127Z,978.83
2023-03-05T12:11:03.129Z,978.83
2023-03-05T12:12:03.107Z,978.81
2023-03-05T12:13:03.093Z,978.73
2023-03-05T12:14:03.088Z,978.71
2023-03-05T12:15:03.103Z,978.73
2023-03-05T12:16:03.111Z,978.73
2023-03-05T12:17:03.063Z,978.75
2023-03-05T12:18:03.054Z,978.68
2023-03-05T12:19:03.088Z,978.71
2023-03-05T12:20:03.039Z,978.66
2023-03-05T12:21:03.039Z,978.68
2023-03-05T12:22:03.019Z,978.73
2023-03-05T12:23:03.013Z,978.70
2023-03-05T12:24:03.005Z,978.68
2023-03-05T12:25:02.989Z,978.68
2023-03-05T12:26:02.990Z,978.60
2023-03-05T12:27:03.001Z,978.61
2023-03-05T12:28:02.954Z,978.60